Time;durP1;ratioP1;P1;durP2;ratioP2;P2;SDS_P1;SDS_P2;PMS_P1;PMS_P2;Temp;Humidity;BMP_temperature;BMP_pressure;BME280_temperature;BME280_humidity;BME280_pressure;Samples;Min_cycle;Max_cycle;Signal;HPM_P1;HPM_P2
2021/05/21 00:00:40;;;;;;;4.10;1.33;;;;;;;12.47;67.11;100328.28;4973397;28;20446;-86
2021/05/21 00:03:06;;;;;;;3.97;1.30;;;;;;;12.46;67.10;100315.81;4961946;28;20050;-85
2021/05/21 00:05:32;;;;;;;2.38;1.10;;;;;;;12.43;67.13;100311.69;4971050;28;20038;-85
2021/05/21 00:07:57;;;;;;;4.07;1.20;;;;;;;12.47;66.92;100322.88;4972675;28;20038;-82
2021/05/21 00:10:23;;;;;;;2.03;0.95;;;;;;;12.44;66.98;100307.94;4965254;28;20045;-82
2021/05/21 00:12:48;;;;;;;2.33;1.00;;;;;;;12.46;67.57;100307.75;4973153;28;20535;-84
2021/05/21 00:15:14;;;;;;;4.13;1.10;;;;;;;12.44;67.68;100301.75;4970740;28;20057;-82
2021/05/21 00:17:40;;;;;;;3.38;1.15;;;;;;;12.43;67.31;100298.22;4987900;28;20035;-83
2021/05/21 00:20:06;;;;;;;3.40;0.88;;;;;;;12.42;67.65;100294.66;4972047;28;20042;-83
2021/05/21 00:22:31;;;;;;;2.42;1.00;;;;;;;12.43;68.05;100287.47;4980779;28;20402;-83
2021/05/21 00:24:57;;;;;;;4.57;1.45;;;;;;;12.47;67.46;100279.84;4980259;28;20049;-86
2021/05/21 00:27:22;;;;;;;3.50;1.20;;;;;;;12.48;67.79;100273.41;4979621;28;20045;-84
2021/05/21 00:29:48;;;;;;;2.78;1.10;;;;;;;12.47;67.67;100271.75;4964974;28;20034;-86
2021/05/21 00:32:13;;;;;;;2.45;1.15;;;;;;;12.44;67.52;100264.91;4985787;28;20046;-83
2021/05/21 00:34:38;;;;;;;2.20;0.90;;;;;;;12.45;68.02;100260.34;4955321;28;20058;-82
2021/05/21 00:37:04;;;;;;;2.17;0.90;;;;;;;12.45;67.82;100260.34;4963769;28;20039;-84
2021/05/21 00:39:29;;;;;;;2.25;0.93;;;;;;;12.44;67.92;100247.91;4983515;28;20126;-81
2021/05/21 00:41:55;;;;;;;3.55;0.98;;;;;;;12.44;68.08;100250.63;4970704;28;20034;-82
2021/05/21 00:44:20;;;;;;;2.33;1.02;;;;;;;12.42;68.48;100245.41;4987802;28;20057;-85
2021/05/21 00:46:47;;;;;;;2.45;1.17;;;;;;;12.42;68.17;100240.84;4988071;28;20244;-83
2021/05/21 00:49:17;;;;;;;2.55;0.90;;;;;;;12.43;68.78;100239.03;4954628;28;20046;-84
2021/05/21 00:51:44;;;;;;;2.38;1.00;;;;;;;12.40;68.77;100228.63;4981934;28;20129;-83
2021/05/21 00:54:09;;;;;;;3.83;0.88;;;;;;;12.36;68.54;100225.47;4983379;28;20069;-84
2021/05/21 00:56:35;;;;;;;2.45;1.05;;;;;;;12.39;68.99;100218.88;4987013;28;20089;-81
2021/05/21 00:59:00;;;;;;;2.85;1.00;;;;;;;12.35;69.01;100218.44;4963976;28;20050;-83
2021/05/21 01:01:30;;;;;;;1.35;0.80;;;;;;;12.37;69.21;100205.63;4975246;28;20050;-84
2021/05/21 01:03:56;;;;;;;3.45;0.95;;;;;;;12.37;69.38;100205.63;4968313;28;20047;-83
2021/05/21 01:06:22;;;;;;;2.10;1.00;;;;;;;12.34;69.42;100206.00;4952050;28;20106;-84
2021/05/21 01:08:47;;;;;;;4.72;1.13;;;;;;;12.33;69.63;100198.13;4952556;28;20066;-83
2021/05/21 01:11:14;;;;;;;3.38;1.35;;;;;;;12.32;69.60;100197.28;4981102;28;20047;-82
2021/05/21 01:13:39;;;;;;;2.95;1.30;;;;;;;12.29;69.71;100196.84;4985132;28;20038;-83
2021/05/21 01:16:05;;;;;;;3.13;1.13;;;;;;;12.30;69.95;100185.88;4968077;28;20483;-82
2021/05/21 01:18:31;;;;;;;2.28;0.88;;;;;;;12.32;69.91;100178.47;4990945;28;20034;-81
2021/05/21 01:20:57;;;;;;;2.78;0.90;;;;;;;12.33;69.79;100174.72;4967659;28;20043;-84
2021/05/21 01:23:22;;;;;;;3.33;0.70;;;;;;;12.32;69.74;100181.16;4976020;28;20038;-84
2021/05/21 01:25:48;;;;;;;3.42;1.00;;;;;;;12.30;70.33;100185.06;4988025;28;20031;-83
2021/05/21 01:28:15;;;;;;;4.93;1.30;;;;;;;12.27;70.62;100172.81;4971207;28;20141;-83
2021/05/21 01:30:41;;;;;;;2.58;1.10;;;;;;;12.24;70.69;100173.19;4974935;28;20621;-84
2021/05/21 01:33:09;;;;;;;3.60;1.02;;;;;;;12.22;70.90;100164.47;4983549;28;20043;-82
2021/05/21 01:35:35;;;;;;;1.50;0.93;;;;;;;12.23;71.22;100163.47;4959161;28;20093;-82
2021/05/21 01:38:00;;;;;;;2.90;1.23;;;;;;;12.20;71.24;100155.78;4970222;28;20399;-82
2021/05/21 01:40:27;;;;;;;4.38;1.20;;;;;;;12.19;71.12;100143.34;4981734;28;20562;-84
2021/05/21 01:42:55;;;;;;;2.38;1.10;;;;;;;12.19;71.37;100151.41;4967018;28;20129;-83
2021/05/21 01:45:20;;;;;;;5.60;1.42;;;;;;;12.21;71.44;100146.69;4964074;28;20447;-86
2021/05/21 01:47:47;;;;;;;2.17;1.00;;;;;;;12.23;71.33;100141.94;4969524;28;20086;-84
2021/05/21 01:50:14;;;;;;;4.20;1.40;;;;;;;12.24;71.43;100130.16;4986167;28;20506;-83
2021/05/21 01:52:39;;;;;;;2.30;1.00;;;;;;;12.25;71.42;100137.19;4979917;28;20046;-83
2021/05/21 01:55:05;;;;;;;2.78;1.20;;;;;;;12.24;71.87;100130.16;4978732;28;20038;-85
2021/05/21 01:57:32;;;;;;;2.83;1.02;;;;;;;12.21;71.83;100138.59;4970767;28;20058;-85
2021/05/21 01:59:57;;;;;;;4.13;1.20;;;;;;;12.25;72.14;100122.91;4991088;28;20034;-83
2021/05/21 02:02:23;;;;;;;2.75;1.17;;;;;;;12.18;72.20;100107.53;4990777;28;20471;-84
2021/05/21 02:04:48;;;;;;;2.50;1.02;;;;;;;12.16;72.38;100108.75;4990005;28;20132;-86
2021/05/21 02:07:15;;;;;;;2.88;1.25;;;;;;;12.12;72.79;100102.09;4986895;28;20049;-84
2021/05/21 02:10:01;;;;;;;1.80;1.20;;;;;;;12.10;72.77;100096.06;4970614;28;20189;-84
2021/05/21 02:12:28;;;;;;;3.00;1.30;;;;;;;12.12;72.86;100094.03;4955108;28;20035;-82
2021/05/21 02:14:57;;;;;;;2.75;1.20;;;;;;;12.11;73.01;100085.13;4956374;28;20239;-82
2021/05/21 02:17:22;;;;;;;2.92;1.33;;;;;;;12.10;73.13;100080.75;4952511;28;20070;-82
2021/05/21 02:19:48;;;;;;;2.42;1.02;;;;;;;12.12;73.04;100077.91;4977406;28;20064;-84
2021/05/21 02:22:14;;;;;;;2.67;1.10;;;;;;;12.10;73.33;100074.56;4954786;28;20049;-83
2021/05/21 02:24:39;;;;;;;2.00;1.00;;;;;;;12.11;73.19;100076.22;4989941;28;20046;-85
2021/05/21 02:27:05;;;;;;;3.45;1.25;;;;;;;12.07;73.47;100056.13;4990847;28;20043;-83
2021/05/21 02:29:30;;;;;;;2.30;0.90;;;;;;;12.05;73.81;100063.53;4990057;28;20089;-82
2021/05/21 02:31:56;;;;;;;4.60;1.30;;;;;;;12.03;73.97;100054.84;4966110;28;20042;-84
2021/05/21 02:34:22;;;;;;;2.75;1.20;;;;;;;12.02;74.20;100053.16;4968504;28;20042;-84
2021/05/21 02:36:47;;;;;;;4.50;1.20;;;;;;;12.00;74.26;100053.38;4952134;28;20057;-86
2021/05/21 02:39:13;;;;;;;2.38;1.00;;;;;;;12.01;74.28;100048.81;4935871;28;20093;-81
2021/05/21 02:41:38;;;;;;;1.92;1.08;;;;;;;11.99;74.36;100050.84;4947056;28;20515;-84
2021/05/21 02:44:03;;;;;;;3.60;0.95;;;;;;;11.98;74.36;100043.81;4963402;28;20042;-83
2021/05/21 02:46:29;;;;;;;2.70;1.15;;;;;;;11.94;74.71;100035.31;4952688;28;20077;-82
2021/05/21 02:48:56;;;;;;;3.15;1.20;;;;;;;11.96;74.66;100034.06;4979257;28;20074;-85
2021/05/21 02:51:21;;;;;;;3.17;1.10;;;;;;;11.94;74.79;100044.22;4962505;28;20121;-85
2021/05/21 02:53:47;;;;;;;3.08;1.20;;;;;;;11.95;74.82;100039.66;4968293;28;20173;-82
2021/05/21 02:56:12;;;;;;;2.63;0.98;;;;;;;11.93;74.86;100036.31;4974929;28;20283;-84
2021/05/21 02:58:38;;;;;;;3.90;1.40;;;;;;;11.93;74.95;100036.31;4979339;28;20564;-83
2021/05/21 03:01:03;;;;;;;2.53;1.10;;;;;;;11.89;75.14;100029.69;4979771;28;20042;-83
2021/05/21 03:03:29;;;;;;;1.98;1.15;;;;;;;11.87;75.18;100016.41;4968976;28;20096;-82
2021/05/21 03:05:55;;;;;;;2.72;1.08;;;;;;;11.85;75.27;100013.06;4949691;28;20062;-83
2021/05/21 03:08:21;;;;;;;4.63;1.30;;;;;;;11.84;75.51;100022.13;4970621;28;20050;-82
2021/05/21 03:10:46;;;;;;;4.10;1.10;;;;;;;11.84;75.62;100016.75;4990696;28;20047;-84
2021/05/21 03:13:11;;;;;;;3.28;1.05;;;;;;;11.82;75.88;100016.13;4971854;28;20038;-84
2021/05/21 03:15:37;;;;;;;5.05;1.42;;;;;;;11.85;75.68;100013.06;4986847;28;20046;-84
2021/05/21 03:18:04;;;;;;;4.30;1.10;;;;;;;11.84;75.71;100008.69;4940749;28;20135;-84
2021/05/21 03:20:29;;;;;;;3.40;1.13;;;;;;;11.86;75.93;100008.56;4950352;28;20038;-85
2021/05/21 03:22:55;;;;;;;3.33;1.20;;;;;;;11.89;75.83;100005.47;4980114;28;20495;-82
2021/05/21 03:25:20;;;;;;;3.33;1.23;;;;;;;11.94;75.43;100011.94;4975947;28;20066;-84
2021/05/21 03:27:46;;;;;;;7.95;1.63;;;;;;;11.98;75.14;100011.56;4977566;28;20041;-83
2021/05/21 03:30:12;;;;;;;3.65;1.15;;;;;;;12.00;75.32;100004.13;4976419;28;20047;-82
2021/05/21 03:32:38;;;;;;;4.85;1.25;;;;;;;12.03;75.15;100003.75;4978939;28;20065;-82
2021/05/21 03:35:05;;;;;;;5.53;1.20;;;;;;;12.08;74.82;100002.13;4968826;28;20045;-83
2021/05/21 03:37:31;;;;;;;2.60;1.27;;;;;;;12.09;74.89;99998.44;4961875;28;20051;-83
2021/05/21 03:39:56;;;;;;;2.88;1.42;;;;;;;12.11;74.98;99995.53;4985672;28;20122;-84
2021/05/21 03:42:22;;;;;;;4.30;1.88;;;;;;;12.10;75.27;99999.25;4963178;28;20515;-83
2021/05/21 03:44:47;;;;;;;3.50;1.40;;;;;;;12.14;75.48;100005.91;4968754;28;20030;-83
2021/05/21 03:47:13;;;;;;;4.80;1.90;;;;;;;12.14;75.89;100004.06;4957672;28;20038;-84
2021/05/21 03:49:39;;;;;;;3.78;1.48;;;;;;;12.12;76.11;99999.91;4967813;28;20070;-83
2021/05/21 03:52:04;;;;;;;2.25;1.10;;;;;;;12.09;76.83;100005.66;4954959;28;20452;-82
2021/05/21 03:54:30;;;;;;;3.45;1.10;;;;;;;12.03;77.74;100009.97;4981689;28;20360;-81
2021/05/21 03:56:55;;;;;;;4.25;1.40;;;;;;;11.92;80.32;100010.47;4978820;28;20046;-83
2021/05/21 03:59:21;;;;;;;3.33;1.40;;;;;;;11.78;81.92;100008.66;4975851;28;20484;-82
2021/05/21 04:01:47;;;;;;;3.05;1.65;;;;;;;11.69;82.92;100014.13;4983581;28;20050;-83
2021/05/21 04:04:12;;;;;;;4.03;1.70;;;;;;;11.55;86.16;100011.50;4952937;28;20045;-81
2021/05/21 04:06:38;;;;;;;3.70;1.80;;;;;;;11.45;87.56;100023.38;4985461;28;20050;-82
2021/05/21 04:09:07;;;;;;;6.03;1.75;;;;;;;11.35;89.22;100022.00;4967570;28;20491;-83
2021/05/21 04:11:37;;;;;;;4.65;2.13;;;;;;;11.31;89.14;100008.13;4985167;28;20046;-83
2021/05/21 04:14:05;;;;;;;4.82;2.33;;;;;;;11.27;88.85;100004.13;4990134;28;20045;-82
2021/05/21 04:16:31;;;;;;;5.63;2.20;;;;;;;11.19;90.39;100006.91;4954026;28;20055;-81
2021/05/21 04:18:57;;;;;;;4.18;2.42;;;;;;;11.12;91.68;100006.00;4959221;28;20472;-81
2021/05/21 04:21:22;;;;;;;6.60;2.85;;;;;;;11.06;92.38;100008.41;4977568;28;20045;-81
2021/05/21 04:23:48;;;;;;;6.65;3.00;;;;;;;10.98;93.81;100016.56;4969245;28;20042;-82
2021/05/21 04:26:16;;;;;;;6.38;2.83;;;;;;;10.95;93.47;100014.25;4981866;28;20475;-82
2021/05/21 04:28:42;;;;;;;11.13;2.88;;;;;;;10.85;94.86;100016.41;4976072;28;20057;-82
2021/05/21 04:31:08;;;;;;;9.93;3.05;;;;;;;10.77;94.13;100019.16;4981742;28;20038;-81
2021/05/21 04:33:34;;;;;;;16.80;4.10;;;;;;;10.72;94.61;100016.19;4966961;28;20043;-83
2021/05/21 04:35:59;;;;;;;13.30;3.58;;;;;;;10.68;94.78;100005.00;4971993;28;20042;-83
2021/05/21 04:38:25;;;;;;;16.73;3.65;;;;;;;10.64;94.67;99997.50;4977868;28;20045;-82
2021/05/21 04:40:50;;;;;;;14.00;3.50;;;;;;;10.60;94.65;100008.59;4985569;28;20041;-81
2021/05/21 04:43:22;;;;;;;14.07;4.18;;;;;;;10.57;95.32;99998.25;4968852;28;20109;-81
2021/05/21 04:45:48;;;;;;;11.75;3.63;;;;;;;10.56;95.98;99996.59;4956202;28;20451;-83
2021/05/21 04:48:13;;;;;;;18.58;4.25;;;;;;;10.62;95.25;100003.06;4972741;28;20047;-84
2021/05/21 04:50:38;;;;;;;8.57;3.33;;;;;;;10.53;96.81;99998.78;4972106;28;20125;-82
2021/05/21 04:53:04;;;;;;;11.10;3.67;;;;;;;10.55;95.37;99992.22;4945504;28;20038;-82
2021/05/21 04:55:37;;;;;;;13.60;3.50;;;;;;;10.53;96.96;99980.84;4984652;28;20825;-82
2021/05/21 04:58:02;;;;;;;15.15;4.00;;;;;;;10.50;96.78;99975.00;4988891;28;20399;-84
2021/05/21 05:00:32;;;;;;;14.73;3.55;;;;;;;10.52;96.44;99976.50;4959159;28;20053;-84
2021/05/21 05:03:08;;;;;;;13.48;4.00;;;;;;;10.57;96.10;99970.59;4973331;28;20034;-82
2021/05/21 05:05:34;;;;;;;13.85;3.80;;;;;;;10.56;96.04;99961.72;4978236;28;20049;-84
2021/05/21 05:08:01;;;;;;;14.45;4.13;;;;;;;10.65;95.78;99970.50;4977582;28;20106;-84
2021/05/21 05:10:31;;;;;;;13.80;4.30;;;;;;;10.68;95.82;99970.13;4977535;28;20061;-81
2021/05/21 05:13:02;;;;;;;12.93;3.00;;;;;;;10.76;97.36;99964.66;4967934;28;20045;-84
2021/05/21 05:15:28;;;;;;;13.38;3.85;;;;;;;10.80;95.86;99962.44;4955752;28;20047;-85
2021/05/21 05:17:54;;;;;;;13.85;3.83;;;;;;;10.89;94.78;99961.31;4971859;28;20081;-82
2021/05/21 05:20:22;;;;;;;11.77;4.45;;;;;;;10.96;95.64;99956.88;4957420;28;20377;-84
2021/05/21 05:22:51;;;;;;;14.40;3.92;;;;;;;11.06;94.58;99951.22;4988591;28;20042;-82
2021/05/21 05:25:17;;;;;;;13.50;3.88;;;;;;;11.20;95.93;99954.91;4987551;28;20563;-83
2021/05/21 05:27:42;;;;;;;16.05;4.10;;;;;;;11.24;93.90;99957.00;4963467;28;20068;-83
2021/05/21 05:30:08;;;;;;;14.13;4.10;;;;;;;11.30;93.15;99953.56;4989546;28;20074;-84
2021/05/21 05:32:34;;;;;;;12.75;4.68;;;;;;;11.35;92.70;99953.00;4988879;28;20058;-81
2021/05/21 05:35:06;;;;;;;13.02;4.28;;;;;;;11.42;92.58;99948.53;4966930;28;20150;-85
2021/05/21 05:37:31;;;;;;;15.52;4.22;;;;;;;11.49;91.25;99949.44;4966234;28;20046;-82
2021/05/21 05:40:05;;;;;;;10.10;3.45;;;;;;;11.55;91.06;99955.06;4972218;28;20589;-83
2021/05/21 05:42:32;;;;;;;11.65;3.10;;;;;;;11.65;89.56;99950.19;4971701;28;20446;-82
2021/05/21 05:45:06;;;;;;;10.27;3.20;;;;;;;11.68;89.68;99936.38;4971210;28;20042;-83
2021/05/21 05:47:32;;;;;;;7.28;2.38;;;;;;;11.73;87.45;99936.63;4959562;28;20034;-83
2021/05/21 05:49:57;;;;;;;6.53;2.60;;;;;;;11.79;86.68;99938.53;4980006;28;20462;-81
2021/05/21 05:52:23;;;;;;;9.77;2.55;;;;;;;11.79;86.33;99943.94;4973709;28;20050;-83
2021/05/21 05:54:48;;;;;;;6.20;2.60;;;;;;;11.85;86.58;99939.63;4971086;28;20050;-85
2021/05/21 05:57:13;;;;;;;9.63;2.60;;;;;;;11.85;86.04;99934.25;4965520;28;20050;-84
2021/05/21 05:59:39;;;;;;;8.15;3.00;;;;;;;11.88;86.40;99932.06;4973799;28;20038;-83
2021/05/21 06:02:05;;;;;;;8.07;2.55;;;;;;;11.93;86.54;99923.41;4984196;28;20038;-81
2021/05/21 06:04:30;;;;;;;7.05;2.47;;;;;;;11.95;85.65;99927.56;4972265;28;20053;-83
2021/05/21 06:06:56;;;;;;;11.00;2.75;;;;;;;11.95;85.60;99924.06;4986596;28;20049;-81
2021/05/21 06:09:21;;;;;;;7.68;2.30;;;;;;;11.97;85.25;99930.06;4991487;28;20050;-85
2021/05/21 06:11:46;;;;;;;10.50;3.13;;;;;;;11.97;84.08;99922.00;4973102;28;20126;-81
2021/05/21 06:14:12;;;;;;;7.93;2.05;;;;;;;12.03;83.56;99918.53;4957419;28;20041;-81
2021/05/21 06:16:37;;;;;;;10.45;2.60;;;;;;;12.06;83.71;99920.00;4970841;28;20050;-84
2021/05/21 06:19:03;;;;;;;8.30;2.50;;;;;;;12.02;82.07;99922.22;4974716;28;20060;-82
2021/05/21 06:21:28;;;;;;;6.75;1.92;;;;;;;12.03;82.15;99923.09;4963830;28;20047;-82
2021/05/21 06:23:54;;;;;;;6.72;2.15;;;;;;;12.02;82.69;99913.34;4967852;28;20103;-84
2021/05/21 06:28:52;;;;;;;9.75;2.65;;;;;;;11.98;79.38;99912.91;4983605;28;20041;-83
2021/05/21 06:31:18;;;;;;;9.00;2.83;;;;;;;12.01;78.36;99906.31;4976759;28;20129;-83
2021/05/21 06:33:43;;;;;;;8.95;2.45;;;;;;;12.01;78.73;99895.56;4967136;28;20061;-81
2021/05/21 06:36:09;;;;;;;9.35;2.40;;;;;;;11.98;76.26;99894.09;4973381;28;20038;-83
2021/05/21 06:38:35;;;;;;;11.43;2.80;;;;;;;12.01;75.76;99892.88;4981196;28;20240;-84
2021/05/21 06:41:00;;;;;;;9.80;2.13;;;;;;;11.99;73.37;99900.28;4972042;28;20038;-85
2021/05/21 06:43:30;;;;;;;10.38;2.30;;;;;;;12.00;73.00;99893.88;4970899;28;20050;-84
2021/05/21 06:45:55;;;;;;;;;;;;;;;12.02;73.64;99884.59;4985497;28;20053;-83
2021/05/21 06:48:30;;;;;;;11.40;1.98;;;;;;;11.91;73.37;99883.28;4973295;28;19914;-85
2021/05/21 06:50:59;;;;;;;12.52;2.35;;;;;;;11.88;72.67;99899.81;4967119;28;20038;-82
2021/05/21 06:53:25;;;;;;;;;;;;;;;11.95;72.55;99916.81;4970160;28;20376;-83
2021/05/21 06:55:50;;;;;;;12.20;2.35;;;;;;;11.91;71.56;99904.78;4971800;28;19929;-83
2021/05/21 06:58:18;;;;;;;11.98;2.42;;;;;;;11.96;72.04;99901.50;4976869;28;20053;-83
2021/05/21 07:00:44;;;;;;;11.00;2.40;;;;;;;11.98;71.23;99898.63;4978201;28;20092;-82
2021/05/21 07:03:09;;;;;;;8.30;2.88;;;;;;;12.02;72.38;99911.47;4974253;28;20133;-83
2021/05/21 07:05:34;;;;;;;10.98;2.47;;;;;;;11.99;70.14;99894.91;4982627;28;20090;-85
2021/05/21 07:08:00;;;;;;;10.20;2.90;;;;;;;12.00;70.84;99907.31;4973301;28;20042;-83
2021/05/21 07:10:25;;;;;;;10.40;2.70;;;;;;;11.99;70.08;99887.66;4963277;28;20702;-82
2021/05/21 07:12:51;;;;;;;10.02;2.72;;;;;;;11.98;69.76;99890.56;4982471;28;20101;-83
2021/05/21 07:15:16;;;;;;;8.35;1.95;;;;;;;12.01;69.94;99879.41;4989062;28;20097;-83
2021/05/21 07:17:42;;;;;;;11.80;1.83;;;;;;;12.11;68.38;99874.50;4962466;28;20483;-82
2021/05/21 07:20:11;;;;;;;8.10;2.40;;;;;;;12.31;69.79;99878.16;4976398;28;20046;-86
2021/05/21 07:22:38;;;;;;;13.77;2.50;;;;;;;12.52;66.46;99874.56;4966359;28;20034;-83
2021/05/21 07:25:04;;;;;;;8.70;1.35;;;;;;;12.61;64.08;99883.31;4982373;28;20050;-84
2021/05/21 07:27:29;;;;;;;8.85;1.42;;;;;;;12.52;61.52;99901.47;4962035;28;20065;-83
2021/05/21 07:29:55;;;;;;;13.38;2.28;;;;;;;12.37;60.66;99903.44;4984549;28;20122;-84
2021/05/21 07:32:20;;;;;;;10.23;2.28;;;;;;;12.27;61.93;99905.66;4989992;28;20169;-81
2021/05/21 07:34:45;;;;;;;10.90;2.10;;;;;;;12.16;62.05;99917.78;4979930;28;20050;-84
2021/05/21 07:37:11;;;;;;;9.40;2.00;;;;;;;12.08;63.32;99934.06;4978837;28;20518;-81
2021/05/21 07:39:37;;;;;;;10.25;2.72;;;;;;;11.98;65.90;99920.97;4968216;28;20035;-85
2021/05/21 07:42:02;;;;;;;10.73;2.22;;;;;;;11.70;67.97;99929.78;4955922;28;20046;-84
2021/05/21 07:44:28;;;;;;;10.38;2.33;;;;;;;11.36;71.28;99932.34;4964020;28;20046;-84
2021/05/21 07:46:53;;;;;;;11.77;2.35;;;;;;;11.15;74.05;99947.38;4983948;28;20042;-82
2021/05/21 07:49:24;;;;;;;10.10;1.95;;;;;;;11.00;74.88;99930.50;4969289;28;20105;-82
2021/05/21 07:51:54;;;;;;;12.75;2.50;;;;;;;10.90;76.71;99932.63;4967806;28;20050;-81
2021/05/21 07:54:21;;;;;;;12.65;2.83;;;;;;;10.73;79.55;99938.22;4964606;28;20104;-82
2021/05/21 07:56:46;;;;;;;20.70;2.65;;;;;;;10.57;81.74;99925.81;4946475;28;20447;-82
2021/05/21 07:59:13;;;;;;;15.75;2.97;;;;;;;10.41;83.95;99919.78;4983143;28;20048;-83
2021/05/21 08:01:40;;;;;;;11.57;2.53;;;;;;;10.21;84.07;99919.44;4992432;28;20090;-83
2021/05/21 08:04:05;;;;;;;12.82;2.72;;;;;;;10.16;85.09;99906.63;4988425;28;20039;-81
2021/05/21 08:06:31;;;;;;;11.75;2.58;;;;;;;10.17;85.62;99906.41;4954491;28;20042;-83
2021/05/21 08:08:56;;;;;;;17.42;4.05;;;;;;;10.20;86.55;99912.44;4978781;28;20046;-81
2021/05/21 08:11:21;;;;;;;9.13;2.10;;;;;;;10.15;85.67;99904.94;4957247;28;20511;-83
2021/05/21 08:13:47;;;;;;;15.00;2.88;;;;;;;10.20;85.96;99910.59;4986236;28;20612;-81
2021/05/21 08:16:14;;;;;;;11.00;2.83;;;;;;;10.20;85.15;99907.91;4990159;28;20141;-81
2021/05/21 08:18:40;;;;;;;9.57;2.90;;;;;;;10.30;85.61;99910.34;4972619;28;20039;-81
2021/05/21 08:21:09;;;;;;;9.15;2.30;;;;;;;10.28;85.54;99910.53;4974096;28;20096;-83
2021/05/21 08:23:34;;;;;;;11.25;3.15;;;;;;;10.34;86.53;99908.97;4981976;28;20503;-81
2021/05/21 08:26:00;;;;;;;11.55;3.60;;;;;;;10.37;86.79;99898.69;4989118;28;20050;-82
2021/05/21 08:28:26;;;;;;;9.77;2.80;;;;;;;10.45;87.76;99897.78;4992743;28;20042;-83
2021/05/21 08:30:52;;;;;;;13.02;3.13;;;;;;;10.52;88.92;99897.88;4994297;28;20466;-83
2021/05/21 08:33:18;;;;;;;11.15;2.83;;;;;;;10.64;88.88;99903.59;4980632;28;20118;-82
2021/05/21 08:35:44;;;;;;;14.80;3.00;;;;;;;10.70;88.20;99890.25;4981624;28;20050;-82
2021/05/21 08:38:09;;;;;;;10.10;3.38;;;;;;;10.79;87.96;99886.47;4989586;28;20034;-84
2021/05/21 08:40:38;;;;;;;12.13;2.80;;;;;;;10.95;88.09;99888.09;4989111;28;20031;-83
2021/05/21 08:43:09;;;;;;;;;;;;;;;11.03;87.77;99879.94;4987105;28;20042;-83
2021/05/21 08:45:36;;;;;;;11.25;2.60;;;;;;;11.17;88.65;99869.34;4972672;28;19949;-83
2021/05/21 08:48:02;;;;;;;11.90;3.17;;;;;;;11.40;87.91;99861.94;4990427;28;20045;-81
2021/05/21 08:50:31;;;;;;;9.43;3.15;;;;;;;11.60;86.19;99880.09;4987793;28;20046;-81
2021/05/21 08:52:56;;;;;;;16.90;3.95;;;;;;;11.74;85.56;99866.56;4967827;28;20089;-83
2021/05/21 08:55:22;;;;;;;11.48;3.20;;;;;;;11.93;85.09;99859.72;4974053;28;20046;-83
2021/05/21 08:57:50;;;;;;;8.00;2.53;;;;;;;12.19;83.52;99860.91;4949031;28;20065;-83
2021/05/21 09:00:16;;;;;;;13.13;3.22;;;;;;;12.35;83.08;99847.16;4971949;28;20050;-82
2021/05/21 09:02:54;;;;;;;8.35;2.47;;;;;;;12.56;81.42;99859.66;4978723;28;20042;-83
2021/05/21 09:05:20;;;;;;;8.77;2.40;;;;;;;12.71;78.40;99851.44;4991330;28;20049;-81
2021/05/21 09:07:46;;;;;;;9.05;2.72;;;;;;;12.80;77.24;99855.66;4976249;28;20046;-83
2021/05/21 09:10:14;;;;;;;8.73;2.47;;;;;;;12.92;76.43;99857.72;4992023;28;20141;-83
2021/05/21 09:12:48;;;;;;;9.45;2.53;;;;;;;13.01;73.51;99856.53;4976151;28;20043;-84
2021/05/21 09:15:15;;;;;;;9.05;2.03;;;;;;;13.09;72.35;99859.88;4991268;28;20109;-84
2021/05/21 09:17:58;;;;;;;9.35;3.03;;;;;;;13.17;70.94;99856.16;4989447;28;20054;-84
2021/05/21 09:20:39;;;;;;;8.57;2.50;;;;;;;13.34;67.96;99851.25;4972034;28;20043;-84
2021/05/21 09:23:15;;;;;;;11.15;2.78;;;;;;;13.50;67.24;99850.03;4980338;28;20046;-84
2021/05/21 09:25:53;;;;;;;8.63;2.60;;;;;;;13.70;66.07;99842.78;4988809;28;20050;-82
2021/05/21 09:28:43;;;;;;;11.95;2.35;;;;;;;13.81;63.10;99852.13;4959880;28;20042;-83
2021/05/21 09:31:21;;;;;;;8.63;2.20;;;;;;;13.91;64.36;99830.09;4984817;28;20442;-84
2021/05/21 09:33:49;;;;;;;8.93;2.45;;;;;;;13.94;63.57;99840.47;4987952;28;20046;-81
2021/05/21 09:36:32;;;;;;;7.15;1.80;;;;;;;14.14;63.65;99826.97;4977242;28;20526;-84
2021/05/21 09:39:06;;;;;;;11.77;2.22;;;;;;;14.31;62.06;99827.34;4968325;28;20482;-84
2021/05/21 09:41:54;;;;;;;9.07;1.98;;;;;;;14.42;62.35;99822.09;4973654;28;20058;-82
2021/05/21 09:44:21;;;;;;;9.63;1.90;;;;;;;14.16;61.48;99843.78;4985691;28;20062;-84
2021/05/21 09:46:49;;;;;;;10.55;2.20;;;;;;;13.97;62.73;99845.44;4981632;28;20193;-83
2021/05/21 09:49:34;;;;;;;10.25;2.20;;;;;;;13.94;64.01;99832.38;4977587;28;20058;-84
2021/05/21 09:52:01;;;;;;;9.20;2.17;;;;;;;14.01;62.94;99854.78;4984048;28;20042;-82
2021/05/21 09:54:54;;;;;;;7.72;1.98;;;;;;;14.22;62.80;99838.34;4988095;28;20046;-85
2021/05/21 09:57:34;;;;;;;11.32;2.15;;;;;;;14.31;62.17;99835.44;4989114;28;20050;-84
2021/05/21 10:00:00;;;;;;;10.52;2.22;;;;;;;14.45;60.82;99837.88;4974775;28;20401;-83
2021/05/21 10:02:27;;;;;;;8.13;2.45;;;;;;;14.56;58.93;99827.50;4975465;28;20046;-84
2021/05/21 10:04:58;;;;;;;10.57;1.90;;;;;;;14.55;56.51;99837.44;4973310;28;20395;-84
2021/05/21 10:07:25;;;;;;;6.60;1.80;;;;;;;14.50;55.74;99876.88;4982254;28;20046;-84
2021/05/21 10:09:53;;;;;;;9.10;2.03;;;;;;;14.32;57.63;99869.47;4984672;28;20061;-83
2021/05/21 10:12:21;;;;;;;14.48;1.95;;;;;;;13.92;63.87;99880.31;4987890;28;20043;-85
2021/05/21 10:14:50;;;;;;;11.52;2.85;;;;;;;13.42;71.58;99883.38;4971551;28;20042;-82
2021/05/21 10:17:18;;;;;;;9.30;3.10;;;;;;;12.98;76.75;99883.88;4971693;28;20035;-82
2021/05/21 10:19:47;;;;;;;9.70;2.72;;;;;;;12.80;79.93;99877.19;4973072;28;20121;-85
2021/05/21 10:22:37;;;;;;;10.40;2.42;;;;;;;12.96;81.67;99880.56;4986402;28;20495;-84
2021/05/21 10:25:06;;;;;;;10.13;3.13;;;;;;;13.07;82.81;99877.28;4987411;28;20039;-82
2021/05/21 10:27:37;;;;;;;9.68;2.50;;;;;;;13.04;77.25;99883.06;4983333;28;20042;-84
2021/05/21 10:30:07;;;;;;;10.00;2.75;;;;;;;12.99;77.82;99875.59;4989902;28;20089;-85
2021/05/21 10:32:32;;;;;;;;;;;;;;;13.06;76.62;99886.38;4974778;28;20048;-82
2021/05/21 10:34:59;;;;;;;11.43;2.30;;;;;;;13.12;73.78;99868.56;4975678;28;19918;-84
2021/05/21 10:37:31;;;;;;;11.65;3.00;;;;;;;13.32;72.50;99874.84;4980843;28;20510;-85
2021/05/21 10:40:01;;;;;;;10.52;2.72;;;;;;;13.54;72.56;99849.41;4973016;28;20073;-85
2021/05/21 10:42:28;;;;;;;10.43;2.40;;;;;;;13.67;70.55;99851.28;4980907;28;20375;-82
2021/05/21 10:44:54;;;;;;;12.05;3.00;;;;;;;13.81;70.39;99859.34;4939013;28;20105;-83
2021/05/21 10:47:23;;;;;;;10.82;2.63;;;;;;;13.85;69.55;99857.91;4954332;28;20108;-83
2021/05/21 10:49:52;;;;;;;8.93;2.70;;;;;;;13.95;68.32;99848.38;4976473;28;20089;-82
2021/05/21 10:52:19;;;;;;;7.45;2.30;;;;;;;14.01;66.90;99852.06;4974041;28;20513;-83
2021/05/21 10:54:49;;;;;;;10.07;2.85;;;;;;;14.11;65.38;99846.28;4971961;28;20042;-83
2021/05/21 10:57:16;;;;;;;9.30;2.78;;;;;;;14.38;66.08;99841.63;4954817;28;20038;-82
2021/05/21 10:59:51;;;;;;;9.73;2.42;;;;;;;14.33;64.28;99849.56;4987568;28;20546;-82
2021/05/21 11:02:55;;;;;;;11.20;2.40;;;;;;;14.48;65.73;99817.72;4987613;28;20487;-86
2021/05/21 11:05:41;;;;;;;11.60;3.25;;;;;;;14.66;63.80;99833.25;4987440;28;20383;-82
2021/05/21 11:08:16;;;;;;;11.27;2.92;;;;;;;14.79;63.19;99840.50;4964826;28;20043;-84
2021/05/21 11:10:50;;;;;;;13.98;2.78;;;;;;;14.92;62.70;99835.00;4988894;28;20046;-84
2021/05/21 11:13:18;;;;;;;9.13;2.50;;;;;;;14.80;61.50;99826.75;4980765;28;20064;-85
2021/05/21 11:15:53;;;;;;;14.45;2.70;;;;;;;14.53;60.82;99850.34;4970305;28;20038;-84
2021/05/21 11:18:26;;;;;;;10.57;1.92;;;;;;;14.25;61.75;99822.78;4970657;28;20133;-84
2021/05/21 11:21:20;;;;;;;8.38;1.48;;;;;;;14.06;62.89;99840.66;4972951;28;20414;-84
2021/05/21 11:23:45;;;;;;;6.57;1.73;;;;;;;14.04;63.93;99837.34;4948430;28;20047;-85
2021/05/21 11:26:13;;;;;;;10.45;1.90;;;;;;;14.28;62.03;99831.28;4971162;28;20122;-81
2021/05/21 11:28:55;;;;;;;8.73;2.47;;;;;;;14.36;62.54;99825.66;4970616;28;20045;-85
2021/05/21 11:31:25;;;;;;;10.48;1.85;;;;;;;14.60;62.91;99826.84;4967735;28;20046;-83
2021/05/21 11:33:54;;;;;;;8.48;1.67;;;;;;;14.89;62.82;99819.22;4986698;28;20042;-84